createdAt,value
2022-10-29T00:00:57.989Z,11.03
2022-10-29T00:03:26.063Z,8.70
2022-10-29T00:06:02.525Z,12.00
2022-10-29T00:08:33.316Z,8.43
2022-10-29T00:11:26.767Z,10.20
2022-10-29T00:13:58.156Z,8.93
2022-10-29T00:16:35.546Z,11.13
2022-10-29T00:19:04.134Z,12.43
2022-10-29T00:21:31.790Z,10.63
2022-10-29T00:23:58.914Z,10.33
2022-10-29T00:26:29.275Z,8.33
2022-10-29T00:28:57.025Z,8.83
2022-10-29T00:31:25.029Z,11.97
2022-10-29T00:33:55.451Z,11.20
2022-10-29T00:36:27.591Z,11.83
2022-10-29T00:38:54.912Z,9.43
2022-10-29T00:41:26.615Z,9.47
2022-10-29T00:44:24.921Z,11.40
2022-10-29T00:47:03.407Z,11.97
2022-10-29T00:49:34.781Z,8.13
2022-10-29T00:52:04.921Z,13.03
2022-10-29T00:54:37.026Z,10.57
2022-10-29T00:57:17.286Z,9.77
2022-10-29T01:02:14.929Z,9.77
2022-10-29T01:04:43.131Z,9.73
2022-10-29T01:07:11.066Z,9.43
2022-10-29T01:09:38.467Z,9.90
2022-10-29T01:12:48.183Z,10.43
2022-10-29T01:15:36.739Z,9.47
2022-10-29T01:18:19.561Z,9.10
2022-10-29T01:21:49.761Z,10.33
2022-10-29T01:24:35.425Z,10.77
2022-10-29T01:27:29.396Z,8.87
2022-10-29T01:30:06.131Z,8.97
2022-10-29T01:33:00.025Z,11.97
2022-10-29T01:35:57.501Z,8.77
2022-10-29T01:38:56.782Z,12.60
2022-10-29T01:41:48.475Z,9.63
2022-10-29T01:44:51.129Z,9.20
2022-10-29T01:47:27.719Z,9.83
2022-10-29T01:50:01.689Z,8.50
2022-10-29T01:52:34.224Z,11.13
2022-10-29T01:55:02.958Z,18.53
2022-10-29T01:57:38.129Z,12.07
2022-10-29T02:00:17.242Z,13.20
2022-10-29T02:03:19.907Z,10.73
2022-10-29T02:06:29.066Z,9.70
2022-10-29T02:09:28.685Z,9.20
2022-10-29T02:12:16.154Z,10.00
2022-10-29T02:15:03.295Z,13.00
2022-10-29T02:17:34.874Z,12.77
2022-10-29T02:20:12.877Z,12.47
2022-10-29T02:22:39.781Z,10.17
2022-10-29T02:25:08.183Z,13.77
2022-10-29T02:27:35.429Z,12.77
2022-10-29T02:30:02.378Z,11.63
2022-10-29T02:32:29.259Z,10.33
2022-10-29T02:34:56.018Z,11.70
2022-10-29T02:37:22.835Z,10.73
2022-10-29T02:39:49.607Z,10.30
2022-10-29T02:42:17.121Z,11.20
2022-10-29T02:44:43.924Z,12.20
2022-10-29T02:47:10.749Z,11.47
2022-10-29T02:49:37.575Z,9.33
2022-10-29T02:52:04.731Z,12.73
2022-10-29T02:54:31.948Z,12.73
2022-10-29T02:56:58.832Z,11.27
2022-10-29T02:59:26.916Z,13.10
2022-10-29T03:01:54.006Z,14.20
2022-10-29T03:04:20.978Z,11.53
2022-10-29T03:06:47.825Z,11.10
2022-10-29T03:09:14.718Z,11.93
2022-10-29T03:11:41.670Z,9.50
2022-10-29T03:14:08.538Z,11.63
2022-10-29T03:16:36.293Z,8.47
2022-10-29T03:19:03.878Z,12.93
2022-10-29T03:21:30.747Z,11.40
2022-10-29T03:23:57.655Z,9.63
2022-10-29T03:26:24.564Z,9.87
2022-10-29T03:28:51.339Z,8.83
2022-10-29T03:31:18.229Z,9.30
2022-10-29T03:33:45.052Z,11.50
2022-10-29T03:36:12.153Z,9.87
2022-10-29T03:38:39.025Z,13.30
2022-10-29T03:41:10.682Z,10.80
2022-10-29T03:43:39.204Z,11.53
2022-10-29T03:46:06.561Z,12.97
2022-10-29T03:48:34.256Z,12.43
2022-10-29T03:51:08.295Z,14.37
2022-10-29T03:53:36.990Z,13.97
2022-10-29T03:56:04.198Z,11.27
2022-10-29T03:58:31.131Z,11.43
2022-10-29T04:00:59.133Z,10.70
2022-10-29T04:03:28.987Z,15.97
2022-10-29T04:05:56.922Z,10.90
2022-10-29T04:08:23.912Z,12.87
2022-10-29T04:10:52.477Z,15.13
2022-10-29T04:13:20.068Z,12.37
2022-10-29T04:15:47.402Z,12.30
2022-10-29T04:18:14.325Z,13.40
2022-10-29T04:20:56.390Z,12.77
2022-10-29T04:29:03.724Z,10.37
2022-10-29T04:31:30.661Z,15.17
2022-10-29T04:33:57.648Z,14.03
2022-10-29T04:36:24.534Z,10.17
2022-10-29T04:38:51.327Z,11.67
2022-10-29T04:41:18.243Z,17.07
2022-10-29T04:43:45.122Z,11.93
2022-10-29T04:46:12.437Z,11.43
2022-10-29T04:48:39.448Z,9.87
2022-10-29T04:51:06.843Z,15.10
2022-10-29T04:53:33.673Z,15.30
2022-10-29T04:56:03.428Z,16.43
2022-10-29T04:58:30.245Z,13.37
2022-10-29T05:01:07.326Z,11.97
2022-10-29T05:03:34.795Z,14.53
2022-10-29T05:06:06.130Z,15.33
2022-10-29T05:08:33.402Z,12.20
2022-10-29T05:11:05.498Z,11.47
2022-10-29T05:13:34.145Z,16.47
2022-10-29T05:16:01.646Z,12.67
2022-10-29T05:18:28.507Z,12.40
2022-10-29T05:20:56.447Z,11.33
2022-10-29T05:23:23.849Z,12.93
2022-10-29T05:25:52.099Z,11.57
2022-10-29T05:28:22.770Z,10.87
2022-10-29T05:30:52.996Z,11.20
2022-10-29T05:33:24.661Z,10.73
2022-10-29T05:35:52.305Z,12.40
2022-10-29T05:38:19.209Z,13.97
2022-10-29T05:40:46.120Z,10.53
2022-10-29T05:43:15.856Z,11.77
2022-10-29T05:45:43.648Z,14.32
2022-10-29T05:50:44.183Z,12.80
2022-10-29T05:53:14.063Z,12.17
2022-10-29T05:55:42.028Z,13.67
2022-10-29T05:58:13.762Z,11.50
2022-10-29T06:00:44.620Z,12.03
2022-10-29T06:03:18.006Z,12.50
2022-10-29T06:05:47.011Z,13.00
2022-10-29T06:08:14.158Z,12.37
2022-10-29T06:10:41.313Z,13.43
2022-10-29T06:13:21.799Z,15.07
2022-10-29T06:15:50.478Z,10.10
2022-10-29T06:18:17.332Z,13.73
2022-10-29T06:20:44.282Z,10.90
2022-10-29T06:23:11.654Z,10.43
2022-10-29T06:25:38.674Z,10.43
2022-10-29T06:28:08.894Z,10.77
2022-10-29T06:30:36.845Z,10.30
2022-10-29T06:33:05.015Z,12.50
2022-10-29T06:35:32.285Z,12.55
2022-10-29T06:37:59.884Z,12.77
2022-10-29T06:40:27.432Z,11.27
2022-10-29T06:43:02.874Z,14.50
2022-10-29T06:45:31.444Z,10.27
2022-10-29T06:47:58.900Z,13.33
2022-10-29T06:50:26.889Z,11.47
2022-10-29T06:53:05.941Z,12.63
2022-10-29T06:55:36.584Z,10.40
2022-10-29T06:58:10.906Z,11.50
2022-10-29T07:00:38.002Z,12.13
2022-10-29T07:03:05.251Z,10.20
2022-10-29T07:05:33.657Z,12.10
2022-10-29T07:08:02.456Z,12.47
2022-10-29T07:10:32.126Z,12.93
2022-10-29T07:12:59.921Z,11.77
2022-10-29T07:15:30.727Z,14.70
2022-10-29T07:18:06.586Z,10.97
2022-10-29T07:20:40.304Z,12.60
2022-10-29T07:23:08.404Z,11.77
2022-10-29T07:25:37.600Z,13.95
2022-10-29T07:28:23.135Z,11.90
2022-10-29T07:30:51.584Z,14.07
2022-10-29T07:33:18.750Z,11.50
2022-10-29T07:35:46.402Z,10.48
2022-10-29T07:38:13.868Z,15.03
2022-10-29T07:40:49.281Z,12.87
2022-10-29T07:43:17.818Z,8.93
2022-10-29T07:45:53.911Z,10.27
2022-10-29T07:48:21.708Z,13.20
2022-10-29T07:50:49.356Z,11.43
2022-10-29T07:53:16.754Z,15.85
2022-10-29T07:55:43.587Z,10.38
2022-10-29T07:58:12.481Z,10.07
2022-10-29T08:00:42.040Z,9.52
2022-10-29T08:03:12.307Z,12.55
2022-10-29T08:05:42.587Z,12.20
2022-10-29T08:08:10.220Z,10.82
2022-10-29T08:10:37.166Z,13.55
2022-10-29T08:13:06.465Z,9.18
2022-10-29T08:15:34.807Z,12.43
2022-10-29T08:18:03.579Z,9.77
2022-10-29T08:20:30.520Z,9.70
2022-10-29T08:23:00.780Z,9.52
2022-10-29T08:25:28.110Z,10.02
2022-10-29T08:28:04.192Z,9.00
2022-10-29T08:30:32.459Z,9.82
2022-10-29T08:33:00.811Z,7.88
2022-10-29T08:35:28.725Z,10.15
2022-10-29T08:37:55.657Z,9.02
2022-10-29T08:40:45.340Z,12.65
2022-10-29T08:43:29.929Z,8.38
2022-10-29T08:45:57.561Z,8.73
2022-10-29T08:48:47.337Z,9.90
2022-10-29T08:51:25.749Z,7.75
2022-10-29T08:54:24.993Z,9.68
2022-10-29T08:56:50.455Z,7.93
2022-10-29T08:59:22.487Z,8.70
2022-10-29T09:01:51.148Z,6.35
2022-10-29T09:04:38.268Z,7.35
2022-10-29T09:07:34.406Z,10.07
2022-10-29T09:10:37.372Z,8.52
2022-10-29T09:13:28.466Z,6.00
2022-10-29T09:16:19.006Z,7.13
2022-10-29T09:19:10.970Z,5.57
2022-10-29T09:22:01.059Z,7.30
2022-10-29T09:25:06.658Z,8.48
2022-10-29T09:28:07.287Z,10.02
2022-10-29T09:31:04.707Z,6.85
2022-10-29T09:33:32.481Z,6.50
2022-10-29T09:36:01.204Z,6.45
2022-10-29T09:38:42.177Z,7.45
2022-10-29T09:41:11.872Z,7.53
2022-10-29T09:43:57.033Z,6.93
2022-10-29T09:46:48.323Z,5.60
2022-10-29T09:50:08.785Z,6.90
2022-10-29T09:52:41.775Z,7.53
2022-10-29T09:55:24.225Z,5.93
2022-10-29T09:57:52.399Z,6.07
2022-10-29T10:00:26.341Z,5.97
2022-10-29T10:03:16.143Z,8.38
2022-10-29T10:06:05.030Z,8.35
2022-10-29T10:08:34.461Z,5.32
2022-10-29T10:11:07.345Z,4.93
2022-10-29T10:13:54.058Z,6.95
2022-10-29T10:16:27.985Z,7.13
2022-10-29T10:18:55.226Z,11.20
2022-10-29T10:21:24.869Z,6.10
2022-10-29T10:23:54.243Z,7.57
2022-10-29T10:26:43.306Z,6.53
2022-10-29T10:29:19.423Z,8.35
2022-10-29T10:31:55.415Z,11.52
2022-10-29T10:34:39.143Z,5.18
2022-10-29T10:37:11.160Z,6.82
2022-10-29T10:39:52.687Z,10.32
2022-10-29T10:42:37.419Z,7.10
2022-10-29T10:45:37.600Z,5.13
2022-10-29T10:48:11.167Z,5.95
2022-10-29T10:50:38.401Z,9.43
2022-10-29T10:53:22.354Z,8.65
2022-10-29T10:55:57.462Z,4.25
2022-10-29T10:58:35.514Z,8.85
2022-10-29T11:01:28.508Z,5.95
2022-10-29T11:04:22.832Z,7.03
2022-10-29T11:06:55.283Z,8.75
2022-10-29T11:09:37.297Z,5.53
2022-10-29T11:12:15.479Z,5.95
2022-10-29T11:14:52.331Z,6.28
2022-10-29T11:17:32.900Z,6.80
2022-10-29T11:20:11.536Z,6.63
2022-10-29T11:23:16.328Z,7.63
2022-10-29T11:26:16.052Z,6.97
2022-10-29T11:29:02.334Z,8.63
2022-10-29T11:31:55.417Z,7.75
2022-10-29T11:34:45.383Z,6.93
2022-10-29T11:37:42.992Z,7.90
2022-10-29T11:40:23.606Z,6.90
2022-10-29T11:42:50.583Z,5.03
2022-10-29T11:46:11.887Z,7.45
2022-10-29T11:48:54.663Z,6.20
2022-10-29T11:51:57.981Z,4.63
2022-10-29T11:54:56.344Z,6.53
2022-10-29T11:57:48.394Z,7.07
2022-10-29T12:00:19.470Z,8.02
2022-10-29T12:03:15.376Z,5.97
2022-10-29T12:06:21.819Z,6.07
2022-10-29T12:09:01.046Z,8.90
2022-10-29T12:11:43.212Z,4.93
2022-10-29T12:14:44.920Z,6.90
2022-10-29T12:18:05.301Z,6.20
2022-10-29T12:20:55.073Z,4.63
2022-10-29T12:24:09.757Z,5.18
2022-10-29T12:26:43.522Z,5.53
2022-10-29T12:29:40.133Z,7.63
2022-10-29T12:32:38.847Z,8.88
2022-10-29T12:35:40.866Z,9.10
2022-10-29T12:38:40.974Z,7.35
2022-10-29T12:41:19.125Z,9.63
2022-10-29T12:43:47.065Z,7.90
2022-10-29T12:46:54.543Z,5.38
2022-10-29T12:49:45.073Z,7.57
2022-10-29T12:52:42.520Z,5.93
2022-10-29T12:55:13.916Z,5.90
2022-10-29T12:57:40.917Z,9.45
2022-10-29T13:00:27.222Z,7.13
2022-10-29T13:02:55.932Z,8.95
2022-10-29T13:05:36.587Z,7.35
2022-10-29T13:08:03.305Z,6.32
2022-10-29T13:10:33.061Z,7.93
2022-10-29T13:13:02.932Z,6.90
2022-10-29T13:15:38.122Z,7.97
2022-10-29T13:18:51.239Z,6.57
2022-10-29T13:21:59.891Z,5.22
2022-10-29T13:24:28.505Z,7.03
2022-10-29T13:26:58.096Z,5.25
2022-10-29T13:29:41.045Z,7.93
2022-10-29T13:32:08.285Z,8.27
2022-10-29T13:35:15.104Z,5.38
2022-10-29T13:38:12.830Z,7.47
2022-10-29T13:40:53.348Z,5.85
2022-10-29T13:43:22.178Z,7.25
2022-10-29T13:46:02.542Z,5.20
2022-10-29T13:48:36.037Z,6.43
2022-10-29T13:51:14.428Z,7.82
2022-10-29T13:54:00.024Z,8.18
2022-10-29T13:56:58.195Z,8.35
2022-10-29T14:00:15.678Z,8.00
2022-10-29T14:02:42.468Z,5.45
2022-10-29T14:05:15.109Z,6.00
2022-10-29T14:08:15.266Z,7.55
2022-10-29T14:10:42.017Z,7.20
2022-10-29T14:13:30.006Z,6.03
2022-10-29T14:16:10.909Z,6.63
2022-10-29T14:18:44.188Z,5.40
2022-10-29T14:21:27.885Z,6.60
2022-10-29T14:24:21.162Z,8.20
2022-10-29T14:26:48.029Z,4.93
2022-10-29T14:29:23.698Z,6.97
2022-10-29T14:32:13.270Z,4.78
2022-10-29T14:34:41.659Z,10.20
2022-10-29T14:37:21.951Z,5.00
2022-10-29T14:40:00.789Z,6.93
2022-10-29T14:42:40.268Z,8.38
2022-10-29T14:45:23.060Z,6.22
2022-10-29T14:47:58.304Z,4.63
2022-10-29T14:50:28.409Z,4.88
2022-10-29T14:53:07.551Z,4.38
2022-10-29T14:55:40.054Z,6.05
2022-10-29T14:58:30.901Z,6.90
2022-10-29T15:01:09.016Z,8.18
2022-10-29T15:03:36.362Z,8.40
2022-10-29T15:06:25.584Z,9.10
2022-10-29T15:08:56.880Z,6.95
2022-10-29T15:11:36.779Z,8.88
2022-10-29T15:14:24.264Z,7.03
2022-10-29T15:16:51.580Z,6.10
2022-10-29T15:19:19.049Z,7.32
2022-10-29T15:21:46.288Z,8.18
2022-10-29T15:24:21.801Z,7.28
2022-10-29T15:26:54.868Z,8.25
2022-10-29T15:29:33.194Z,8.52
2022-10-29T15:32:01.374Z,6.10
2022-10-29T15:34:35.309Z,7.10
2022-10-29T15:37:32.379Z,8.82
2022-10-29T15:40:26.250Z,5.60
2022-10-29T15:42:54.787Z,7.18
2022-10-29T15:45:28.208Z,8.00
2022-10-29T15:47:58.176Z,6.90
2022-10-29T15:50:41.498Z,7.55
2022-10-29T15:53:16.815Z,8.05
2022-10-29T15:55:44.329Z,10.00
2022-10-29T15:58:24.702Z,5.68
2022-10-29T16:00:51.743Z,7.40
2022-10-29T16:03:24.793Z,8.35
2022-10-29T16:05:56.829Z,7.25
2022-10-29T16:08:49.997Z,6.88
2022-10-29T16:11:22.604Z,7.15
2022-10-29T16:13:54.832Z,5.95
2022-10-29T16:16:25.425Z,9.73
2022-10-29T16:18:53.291Z,7.10
2022-10-29T16:21:24.212Z,9.77
2022-10-29T16:23:52.216Z,13.40
2022-10-29T16:26:23.960Z,10.35
2022-10-29T16:28:53.145Z,9.18
2022-10-29T16:31:29.049Z,11.27
2022-10-29T16:34:02.744Z,11.43
2022-10-29T16:36:29.644Z,13.75
2022-10-29T16:38:56.448Z,9.75
2022-10-29T16:41:23.383Z,7.43
2022-10-29T16:43:50.157Z,9.85
2022-10-29T16:46:17.130Z,12.52
2022-10-29T16:48:44.221Z,9.93
2022-10-29T16:51:11.132Z,7.95
2022-10-29T16:53:37.936Z,9.68
2022-10-29T16:56:05.771Z,8.63
2022-10-29T16:58:32.539Z,11.07
2022-10-29T17:01:08.463Z,9.10
2022-10-29T17:03:35.936Z,10.90
2022-10-29T17:06:09.200Z,12.35
2022-10-29T17:08:37.653Z,10.98
2022-10-29T17:11:08.687Z,8.30
2022-10-29T17:13:36.365Z,6.97
2022-10-29T17:16:08.675Z,8.77
2022-10-29T17:18:36.924Z,10.95
2022-10-29T17:21:04.231Z,7.85
2022-10-29T17:23:32.591Z,8.30
2022-10-29T17:26:00.332Z,9.23
2022-10-29T17:28:28.545Z,11.65
2022-10-29T17:30:55.393Z,9.30
2022-10-29T17:33:22.244Z,7.32
2022-10-29T17:35:49.194Z,7.85
2022-10-29T17:38:16.235Z,7.38
2022-10-29T17:40:46.041Z,7.20
2022-10-29T17:43:13.135Z,8.15
2022-10-29T17:45:42.062Z,11.20
2022-10-29T17:48:08.987Z,6.93
2022-10-29T17:50:36.181Z,6.63
2022-10-29T17:53:03.932Z,7.30
2022-10-29T17:55:30.876Z,7.20
2022-10-29T17:57:57.914Z,7.65
2022-10-29T18:00:25.952Z,9.00
2022-10-29T18:02:52.832Z,12.05
2022-10-29T18:05:19.750Z,7.63
2022-10-29T18:07:46.577Z,7.22
2022-10-29T18:10:13.391Z,7.78
2022-10-29T18:12:40.155Z,9.50
2022-10-29T18:15:07.904Z,7.60
2022-10-29T18:17:34.831Z,10.25
2022-10-29T18:20:01.787Z,10.15
2022-10-29T18:22:28.601Z,7.10
2022-10-29T18:24:55.442Z,9.80
2022-10-29T18:27:22.225Z,10.55
2022-10-29T18:29:49.284Z,7.75
2022-10-29T18:32:16.610Z,11.75
2022-10-29T18:34:43.502Z,8.30
2022-10-29T18:37:10.293Z,5.88
2022-10-29T18:39:38.064Z,8.02
2022-10-29T18:42:05.434Z,7.30
2022-10-29T18:44:32.350Z,6.85
2022-10-29T18:46:59.148Z,7.50
2022-10-29T18:49:27.647Z,8.05
2022-10-29T18:51:54.678Z,10.57
2022-10-29T18:54:21.904Z,6.47
2022-10-29T18:56:48.752Z,7.55
2022-10-29T18:59:15.589Z,9.23
2022-10-29T19:01:42.783Z,10.88
2022-10-29T19:04:14.357Z,8.88
2022-10-29T19:06:41.372Z,6.45
2022-10-29T19:09:10.878Z,8.68
2022-10-29T19:11:38.247Z,9.02
2022-10-29T19:14:11.498Z,8.00
2022-10-29T19:16:38.501Z,5.85
2022-10-29T19:19:11.658Z,7.60
2022-10-29T19:21:40.373Z,6.82
2022-10-29T19:24:08.317Z,7.70
2022-10-29T19:26:36.352Z,7.82
2022-10-29T19:29:05.433Z,5.40
2022-10-29T19:31:34.474Z,6.68
2022-10-29T19:34:05.998Z,6.00
2022-10-29T19:36:34.821Z,6.75
2022-10-29T19:39:01.802Z,8.98
2022-10-29T19:41:29.395Z,9.82
2022-10-29T19:44:01.177Z,12.23
2022-10-29T19:46:28.866Z,8.65
2022-10-29T19:48:58.289Z,8.45
2022-10-29T19:51:25.999Z,6.80
2022-10-29T19:53:53.230Z,7.93
2022-10-29T19:56:21.345Z,10.57
2022-10-29T19:58:48.535Z,7.53
2022-10-29T20:01:18.457Z,8.45
2022-10-29T20:03:46.780Z,9.93
2022-10-29T20:06:14.914Z,12.52
2022-10-29T20:08:42.379Z,8.50
2022-10-29T20:11:09.657Z,8.50
2022-10-29T20:13:37.788Z,12.85
2022-10-29T20:16:19.963Z,9.73
2022-10-29T20:18:48.560Z,10.15
2022-10-29T20:21:16.476Z,9.15
2022-10-29T20:23:44.736Z,8.27
2022-10-29T20:26:11.802Z,8.80
2022-10-29T20:28:39.382Z,8.77
2022-10-29T20:31:17.976Z,9.98
2022-10-29T20:33:57.616Z,7.65
2022-10-29T20:36:28.423Z,9.75
2022-10-29T20:38:56.840Z,7.60
2022-10-29T20:41:24.240Z,7.55
2022-10-29T20:43:59.738Z,7.20
2022-10-29T20:46:27.583Z,7.00
2022-10-29T20:48:54.455Z,8.32
2022-10-29T20:51:22.976Z,10.25
2022-10-29T20:53:51.106Z,8.50
2022-10-29T20:56:19.693Z,10.32
2022-10-29T20:58:46.533Z,10.85
2022-10-29T21:01:17.492Z,8.80
2022-10-29T21:03:45.525Z,9.20
2022-10-29T21:06:16.906Z,9.38
2022-10-29T21:08:48.903Z,8.68
2022-10-29T21:11:18.432Z,8.18
2022-10-29T21:13:46.202Z,10.23
2022-10-29T21:16:22.459Z,8.30
2022-10-29T21:18:53.110Z,8.25
2022-10-29T21:21:20.376Z,7.53
2022-10-29T21:23:48.251Z,7.45
2022-10-29T21:26:18.799Z,11.68
2022-10-29T21:28:47.248Z,7.68
2022-10-29T21:31:14.068Z,8.45
2022-10-29T21:33:41.220Z,9.98
2022-10-29T21:36:11.118Z,8.27
2022-10-29T21:38:37.912Z,8.88
2022-10-29T21:41:04.821Z,8.60
2022-10-29T21:43:32.168Z,7.32
2022-10-29T21:45:59.277Z,8.65
2022-10-29T21:48:29.368Z,7.30
2022-10-29T21:51:09.840Z,6.90
2022-10-29T21:53:37.226Z,8.73
2022-10-29T21:56:08.135Z,9.18
2022-10-29T21:58:35.021Z,8.43
2022-10-29T22:01:08.181Z,8.02
2022-10-29T22:03:38.646Z,11.35
2022-10-29T22:06:12.765Z,8.48
2022-10-29T22:08:40.440Z,9.50
2022-10-29T22:11:08.416Z,8.50
2022-10-29T22:13:35.710Z,12.10
2022-10-29T22:16:04.885Z,9.45
2022-10-29T22:18:32.273Z,8.05
2022-10-29T22:21:12.902Z,9.25
2022-10-29T22:23:54.218Z,9.40
2022-10-29T22:26:25.469Z,10.52
2022-10-29T22:28:52.490Z,7.65
2022-10-29T22:31:21.583Z,9.63
2022-10-29T22:33:48.972Z,7.22
2022-10-29T22:36:22.372Z,8.88
2022-10-29T22:38:57.686Z,8.57
2022-10-29T22:41:26.185Z,7.97
2022-10-29T22:43:54.638Z,7.88
2022-10-29T22:46:22.680Z,7.70
2022-10-29T22:48:49.460Z,8.23
2022-10-29T22:51:24.352Z,10.30
2022-10-29T22:53:53.275Z,8.87
2022-10-29T22:56:30.969Z,10.57
2022-10-29T22:58:58.415Z,11.88
2022-10-29T23:01:31.573Z,6.93
2022-10-29T23:03:59.164Z,8.67
2022-10-29T23:06:27.163Z,9.18
2022-10-29T23:08:58.162Z,10.07
2022-10-29T23:11:30.169Z,8.17
2022-10-29T23:13:59.968Z,7.53
2022-10-29T23:16:30.323Z,9.43
2022-10-29T23:19:00.954Z,14.80
2022-10-29T23:21:28.607Z,13.47
2022-10-29T23:23:55.540Z,8.73
2022-10-29T23:26:24.587Z,9.43
2022-10-29T23:28:51.493Z,11.33
2022-10-29T23:31:21.822Z,9.20
2022-10-29T23:33:52.944Z,9.77
2022-10-29T23:36:23.519Z,7.07
2022-10-29T23:38:59.252Z,6.47
2022-10-29T23:41:29.726Z,9.85
2022-10-29T23:43:57.442Z,8.13
2022-10-29T23:46:24.377Z,9.80
2022-10-29T23:48:51.316Z,9.37
2022-10-29T23:51:18.407Z,8.30
2022-10-29T23:53:45.428Z,7.43
2022-10-29T23:56:12.189Z,7.20
2022-10-29T23:58:39.383Z,9.00
